sensor_id;sensor_type;location;lat;lon;timestamp;P1;P2;P0
79038;PMS5003;68436;55.068;73.284;2023-08-21T00:00:52;6.67;6.00;3.00
79038;PMS5003;68436;55.068;73.284;2023-08-21T00:03:20;16.00;12.00;7.00
79038;PMS5003;68436;55.068;73.284;2023-08-21T00:05:52;12.00;10.00;6.00
79038;PMS5003;68436;55.068;73.284;2023-08-21T00:08:18;21.50;17.00;10.75
79038;PMS5003;68436;55.068;73.284;2023-08-21T00:10:52;40.00;32.00;19.33
79038;PMS5003;68436;55.068;73.284;2023-08-21T00:13:18;22.50;19.00;11.00
79038;PMS5003;68436;55.068;73.284;2023-08-21T00:15:52;19.33;16.00;8.00
79038;PMS5003;68436;55.068;73.284;2023-08-21T00:18:21;31.50;26.00;19.75
79038;PMS5003;68436;55.068;73.284;2023-08-21T00:20:52;13.00;11.00;6.00
79038;PMS5003;68436;55.068;73.284;2023-08-21T00:23:18;8.50;7.00;4.00
79038;PMS5003;68436;55.068;73.284;2023-08-21T00:25:52;24.33;19.00;10.00
79038;PMS5003;68436;55.068;73.284;2023-08-21T00:28:18;18.75;15.75;8.00
79038;PMS5003;68436;55.068;73.284;2023-08-21T00:30:59;11.00;9.00;4.00
79038;PMS5003;68436;55.068;73.284;2023-08-21T00:33:25;24.00;19.00;11.00
79038;PMS5003;68436;55.068;73.284;2023-08-21T00:35:53;27.00;21.00;13.00
79038;PMS5003;68436;55.068;73.284;2023-08-21T00:38:19;33.00;28.00;18.50
79038;PMS5003;68436;55.068;73.284;2023-08-21T00:40:52;13.33;10.33;6.00
79038;PMS5003;68436;55.068;73.284;2023-08-21T00:43:19;17.00;13.25;8.00
79038;PMS5003;68436;55.068;73.284;2023-08-21T00:45:52;27.00;21.00;13.00
79038;PMS5003;68436;55.068;73.284;2023-08-21T00:48:19;25.00;19.75;11.25
79038;PMS5003;68436;55.068;73.284;2023-08-21T00:50:52;26.00;22.00;14.00
79038;PMS5003;68436;55.068;73.284;2023-08-21T00:53:18;19.00;16.00;9.00
79038;PMS5003;68436;55.068;73.284;2023-08-21T00:55:52;19.00;14.00;8.00
79038;PMS5003;68436;55.068;73.284;2023-08-21T00:58:19;35.00;29.75;20.00
79038;PMS5003;68436;55.068;73.284;2023-08-21T01:00:52;24.67;20.33;13.00
79038;PMS5003;68436;55.068;73.284;2023-08-21T01:03:19;28.25;23.75;16.00
79038;PMS5003;68436;55.068;73.284;2023-08-21T01:05:52;29.00;18.67;12.67
79038;PMS5003;68436;55.068;73.284;2023-08-21T01:14:34;39.75;24.25;11.00
79038;PMS5003;68436;55.068;73.284;2023-08-21T01:16:38;25.25;19.00;11.50
79038;PMS5003;68436;55.068;73.284;2023-08-21T01:19:07;26.25;19.25;10.00
79038;PMS5003;68436;55.068;73.284;2023-08-21T01:21:35;32.00;19.25;9.25
79038;PMS5003;68436;55.068;73.284;2023-08-21T01:24:01;27.75;19.00;9.00
79038;PMS5003;68436;55.068;73.284;2023-08-21T01:26:27;59.75;42.00;26.50
79038;PMS5003;68436;55.068;73.284;2023-08-21T01:28:53;72.25;51.00;28.00
79038;PMS5003;68436;55.068;73.284;2023-08-21T01:31:26;49.50;38.25;22.50
79038;PMS5003;68436;55.068;73.284;2023-08-21T01:33:57;33.25;23.50;13.00
79038;PMS5003;68436;55.068;73.284;2023-08-21T01:36:24;41.00;31.67;19.00
79038;PMS5003;68436;55.068;73.284;2023-08-21T01:38:51;48.00;35.50;20.25
79038;PMS5003;68436;55.068;73.284;2023-08-21T01:41:17;61.33;42.33;21.00
79038;PMS5003;68436;55.068;73.284;2023-08-21T01:43:42;63.25;44.00;26.00
79038;PMS5003;68436;55.068;73.284;2023-08-21T01:46:09;53.00;38.33;21.33
79038;PMS5003;68436;55.068;73.284;2023-08-21T01:48:35;47.25;34.00;18.25
79038;PMS5003;68436;55.068;73.284;2023-08-21T01:51:01;33.00;22.00;10.00
79038;PMS5003;68436;55.068;73.284;2023-08-21T01:53:28;25.00;16.75;7.00
79038;PMS5003;68436;55.068;73.284;2023-08-21T01:55:54;15.00;12.00;2.50
79038;PMS5003;68436;55.068;73.284;2023-08-21T01:58:20;19.50;14.00;8.50
79038;PMS5003;68436;55.068;73.284;2023-08-21T02:00:52;15.00;10.00;5.00
79038;PMS5003;68436;55.068;73.284;2023-08-21T02:03:18;21.00;18.25;12.00
79038;PMS5003;68436;55.068;73.284;2023-08-21T02:05:55;19.00;12.00;5.33
79038;PMS5003;68436;55.068;73.284;2023-08-21T02:08:22;37.00;26.00;14.00
79038;PMS5003;68436;55.068;73.284;2023-08-21T02:10:52;47.50;39.50;26.00
79038;PMS5003;68436;55.068;73.284;2023-08-21T02:13:19;40.25;31.75;18.50
79038;PMS5003;68436;55.068;73.284;2023-08-21T02:15:53;51.00;34.00;23.00
79038;PMS5003;68436;55.068;73.284;2023-08-21T02:18:19;67.00;47.50;40.75
79038;PMS5003;68436;55.068;73.284;2023-08-21T02:20:52;58.00;41.67;22.67
79038;PMS5003;68436;55.068;73.284;2023-08-21T02:23:18;81.00;53.00;40.75
79038;PMS5003;68436;55.068;73.284;2023-08-21T02:25:53;53.67;39.33;18.67
79038;PMS5003;68436;55.068;73.284;2023-08-21T02:28:19;89.50;60.75;42.25
79038;PMS5003;68436;55.068;73.284;2023-08-21T02:30:52;124.00;71.00;66.00
79038;PMS5003;68436;55.068;73.284;2023-08-21T02:33:18;140.50;84.75;70.25
79038;PMS5003;68436;55.068;73.284;2023-08-21T02:35:52;99.00;67.00;57.00
79038;PMS5003;68436;55.068;73.284;2023-08-21T02:38:20;101.25;48.00;31.00
79038;PMS5003;68436;55.068;73.284;2023-08-21T02:40:52;80.00;43.00;33.50
79038;PMS5003;68436;55.068;73.284;2023-08-21T02:43:18;7.00;6.00;4.00
79038;PMS5003;68436;55.068;73.284;2023-08-21T02:45:52;6.00;6.00;4.00
79038;PMS5003;68436;55.068;73.284;2023-08-21T02:48:19;7.00;6.00;4.00
79038;PMS5003;68436;55.068;73.284;2023-08-21T02:50:52;7.00;6.00;5.00
79038;PMS5003;68436;55.068;73.284;2023-08-21T02:53:20;8.00;7.00;5.00
79038;PMS5003;68436;55.068;73.284;2023-08-21T02:55:52;10.00;9.00;5.00
79038;PMS5003;68436;55.068;73.284;2023-08-21T02:58:18;10.50;9.25;5.00
79038;PMS5003;68436;55.068;73.284;2023-08-21T03:00:52;15.67;12.00;7.67
79038;PMS5003;68436;55.068;73.284;2023-08-21T03:03:18;14.75;12.25;8.00
79038;PMS5003;68436;55.068;73.284;2023-08-21T03:05:52;11.00;10.00;7.00
79038;PMS5003;68436;55.068;73.284;2023-08-21T03:08:18;9.00;8.00;5.00
79038;PMS5003;68436;55.068;73.284;2023-08-21T03:10:52;9.00;7.00;4.00
79038;PMS5003;68436;55.068;73.284;2023-08-21T03:13:22;11.00;9.00;6.00
79038;PMS5003;68436;55.068;73.284;2023-08-21T03:15:52;8.00;7.00;4.00
79038;PMS5003;68436;55.068;73.284;2023-08-21T03:18:18;7.00;6.50;4.00
79038;PMS5003;68436;55.068;73.284;2023-08-21T03:20:52;11.67;9.00;6.00
79038;PMS5003;68436;55.068;73.284;2023-08-21T03:23:19;8.00;7.00;4.00
79038;PMS5003;68436;55.068;73.284;2023-08-21T03:25:52;10.33;8.67;5.00
79038;PMS5003;68436;55.068;73.284;2023-08-21T03:28:18;13.00;9.00;6.00
79038;PMS5003;68436;55.068;73.284;2023-08-21T03:30:52;16.00;12.67;7.67
79038;PMS5003;68436;55.068;73.284;2023-08-21T03:33:19;8.00;7.00;5.00
79038;PMS5003;68436;55.068;73.284;2023-08-21T03:35:53;8.00;7.00;4.00
79038;PMS5003;68436;55.068;73.284;2023-08-21T03:38:19;7.75;6.00;4.00
79038;PMS5003;68436;55.068;73.284;2023-08-21T03:40:52;7.67;6.00;4.00
79038;PMS5003;68436;55.068;73.284;2023-08-21T03:43:18;7.00;5.00;4.00
79038;PMS5003;68436;55.068;73.284;2023-08-21T03:45:52;18.00;14.00;7.33
79038;PMS5003;68436;55.068;73.284;2023-08-21T03:48:18;37.00;31.00;20.50
79038;PMS5003;68436;55.068;73.284;2023-08-21T03:50:52;14.00;12.50;8.00
79038;PMS5003;68436;55.068;73.284;2023-08-21T03:53:18;14.50;13.00;9.00
79038;PMS5003;68436;55.068;73.284;2023-08-21T03:55:52;17.00;13.00;8.67
79038;PMS5003;68436;55.068;73.284;2023-08-21T03:58:18;9.00;7.25;5.75
79038;PMS5003;68436;55.068;73.284;2023-08-21T04:00:53;6.00;5.00;4.00
79038;PMS5003;68436;55.068;73.284;2023-08-21T04:03:19;11.75;9.00;6.00
79038;PMS5003;68436;55.068;73.284;2023-08-21T04:05:53;5.00;5.00;3.00
79038;PMS5003;68436;55.068;73.284;2023-08-21T04:08:19;35.00;30.75;24.00
79038;PMS5003;68436;55.068;73.284;2023-08-21T04:10:52;18.00;15.00;10.00
79038;PMS5003;68436;55.068;73.284;2023-08-21T04:13:21;12.00;10.00;6.00
79038;PMS5003;68436;55.068;73.284;2023-08-21T04:15:53;9.00;8.00;5.00
79038;PMS5003;68436;55.068;73.284;2023-08-21T04:18:21;15.50;13.00;9.00
79038;PMS5003;68436;55.068;73.284;2023-08-21T04:20:52;24.00;22.00;15.00
79038;PMS5003;68436;55.068;73.284;2023-08-21T04:23:18;10.00;9.00;6.00
79038;PMS5003;68436;55.068;73.284;2023-08-21T04:25:52;13.67;11.33;8.00
79038;PMS5003;68436;55.068;73.284;2023-08-21T04:28:18;14.00;11.00;7.00
79038;PMS5003;68436;55.068;73.284;2023-08-21T04:30:52;9.67;7.67;5.00
79038;PMS5003;68436;55.068;73.284;2023-08-21T04:33:19;25.00;21.00;13.00
79038;PMS5003;68436;55.068;73.284;2023-08-21T04:35:52;14.00;10.00;7.00
79038;PMS5003;68436;55.068;73.284;2023-08-21T04:38:18;16.00;13.00;9.00
79038;PMS5003;68436;55.068;73.284;2023-08-21T04:40:52;18.67;15.00;10.00
79038;PMS5003;68436;55.068;73.284;2023-08-21T04:43:19;11.50;9.00;6.00
79038;PMS5003;68436;55.068;73.284;2023-08-21T04:45:53;13.00;11.00;6.00
79038;PMS5003;68436;55.068;73.284;2023-08-21T04:48:21;8.75;8.00;5.00
79038;PMS5003;68436;55.068;73.284;2023-08-21T04:50:52;9.00;8.00;5.00
79038;PMS5003;68436;55.068;73.284;2023-08-21T04:53:18;12.00;10.25;6.00
79038;PMS5003;68436;55.068;73.284;2023-08-21T04:55:52;10.00;8.00;5.00
79038;PMS5003;68436;55.068;73.284;2023-08-21T04:58:19;7.00;7.00;4.00
79038;PMS5003;68436;55.068;73.284;2023-08-21T05:00:52;12.00;9.50;6.00
79038;PMS5003;68436;55.068;73.284;2023-08-21T05:03:18;12.00;9.25;6.00
79038;PMS5003;68436;55.068;73.284;2023-08-21T05:05:53;6.00;5.00;3.00
79038;PMS5003;68436;55.068;73.284;2023-08-21T05:08:21;20.00;14.50;7.25
79038;PMS5003;68436;55.068;73.284;2023-08-21T05:10:58;11.00;9.00;6.00
79038;PMS5003;68436;55.068;73.284;2023-08-21T05:13:26;6.00;5.00;3.00
79038;PMS5003;68436;55.068;73.284;2023-08-21T05:15:54;7.00;6.00;4.00
79038;PMS5003;68436;55.068;73.284;2023-08-21T05:18:20;6.00;6.00;4.00
79038;PMS5003;68436;55.068;73.284;2023-08-21T05:20:53;6.00;5.00;4.00
79038;PMS5003;68436;55.068;73.284;2023-08-21T05:23:20;17.75;12.75;8.00
79038;PMS5003;68436;55.068;73.284;2023-08-21T05:25:52;6.00;5.00;3.00
79038;PMS5003;68436;55.068;73.284;2023-08-21T05:28:19;12.00;11.00;7.00
79038;PMS5003;68436;55.068;73.284;2023-08-21T05:30:52;9.00;7.00;4.33
79038;PMS5003;68436;55.068;73.284;2023-08-21T05:33:20;10.75;8.50;4.00
79038;PMS5003;68436;55.068;73.284;2023-08-21T05:35:52;10.00;8.00;5.00
79038;PMS5003;68436;55.068;73.284;2023-08-21T05:38:19;8.00;7.00;4.00
79038;PMS5003;68436;55.068;73.284;2023-08-21T05:40:52;10.00;8.00;5.00
79038;PMS5003;68436;55.068;73.284;2023-08-21T05:43:19;6.00;5.00;4.00
79038;PMS5003;68436;55.068;73.284;2023-08-21T05:45:52;6.33;5.67;4.00
79038;PMS5003;68436;55.068;73.284;2023-08-21T05:48:18;14.00;12.00;7.75
79038;PMS5003;68436;55.068;73.284;2023-08-21T05:50:52;9.00;8.00;6.00
79038;PMS5003;68436;55.068;73.284;2023-08-21T05:53:19;24.00;17.00;9.00
79038;PMS5003;68436;55.068;73.284;2023-08-21T05:55:53;11.67;9.00;6.33
79038;PMS5003;68436;55.068;73.284;2023-08-21T05:58:19;5.50;5.00;3.00
79038;PMS5003;68436;55.068;73.284;2023-08-21T06:00:52;7.00;6.00;4.00
79038;PMS5003;68436;55.068;73.284;2023-08-21T06:03:18;11.00;8.25;5.00
79038;PMS5003;68436;55.068;73.284;2023-08-21T06:06:20;22.00;19.00;12.33
79038;PMS5003;68436;55.068;73.284;2023-08-21T06:08:46;15.25;12.00;7.25
79038;PMS5003;68436;55.068;73.284;2023-08-21T06:11:11;9.00;8.00;5.00
79038;PMS5003;68436;55.068;73.284;2023-08-21T06:13:38;22.75;19.25;13.00
79038;PMS5003;68436;55.068;73.284;2023-08-21T06:16:05;16.00;13.00;10.00
79038;PMS5003;68436;55.068;73.284;2023-08-21T06:18:35;18.00;13.50;7.75
79038;PMS5003;68436;55.068;73.284;2023-08-21T06:21:01;8.50;7.25;5.00
79038;PMS5003;68436;55.068;73.284;2023-08-21T06:23:28;10.50;10.00;6.25
79038;PMS5003;68436;55.068;73.284;2023-08-21T06:25:54;12.00;10.50;6.00
79038;PMS5003;68436;55.068;73.284;2023-08-21T06:28:22;6.00;5.00;2.50
79038;PMS5003;68436;55.068;73.284;2023-08-21T06:30:55;5.50;5.00;3.00
79038;PMS5003;68436;55.068;73.284;2023-08-21T06:33:23;8.50;7.00;4.00
79038;PMS5003;68436;55.068;73.284;2023-08-21T06:35:52;18.50;14.50;8.00
79038;PMS5003;68436;55.068;73.284;2023-08-21T06:38:18;21.00;14.00;7.00
79038;PMS5003;68436;55.068;73.284;2023-08-21T06:40:52;22.00;15.33;7.67
79038;PMS5003;68436;55.068;73.284;2023-08-21T06:43:18;8.00;7.00;5.00
79038;PMS5003;68436;55.068;73.284;2023-08-21T06:45:52;8.50;7.00;3.00
79038;PMS5003;68436;55.068;73.284;2023-08-21T06:48:19;12.00;10.00;6.00
79038;PMS5003;68436;55.068;73.284;2023-08-21T06:50:52;5.00;4.00;3.00
79038;PMS5003;68436;55.068;73.284;2023-08-21T06:53:19;16.75;14.00;9.00
79038;PMS5003;68436;55.068;73.284;2023-08-21T06:55:52;13.00;10.00;6.00
79038;PMS5003;68436;55.068;73.284;2023-08-21T06:58:18;3.00;2.00;2.00
79038;PMS5003;68436;55.068;73.284;2023-08-21T07:00:55;5.00;5.00;3.00
79038;PMS5003;68436;55.068;73.284;2023-08-21T07:03:33;11.00;8.00;5.00
79038;PMS5003;68436;55.068;73.284;2023-08-21T07:05:59;10.75;9.50;6.25
79038;PMS5003;68436;55.068;73.284;2023-08-21T07:08:25;14.00;11.25;7.25
79038;PMS5003;68436;55.068;73.284;2023-08-21T07:10:52;12.00;8.00;5.00
79038;PMS5003;68436;55.068;73.284;2023-08-21T07:13:19;14.00;11.00;5.00
79038;PMS5003;68436;55.068;73.284;2023-08-21T07:15:53;21.00;16.00;9.00
79038;PMS5003;68436;55.068;73.284;2023-08-21T07:18:20;6.00;5.00;3.75
79038;PMS5003;68436;55.068;73.284;2023-08-21T07:20:52;8.50;7.00;5.00
79038;PMS5003;68436;55.068;73.284;2023-08-21T07:23:19;18.25;14.00;6.00
79038;PMS5003;68436;55.068;73.284;2023-08-21T07:25:52;4.00;4.00;3.00
79038;PMS5003;68436;55.068;73.284;2023-08-21T07:28:19;16.25;12.00;5.00
79038;PMS5003;68436;55.068;73.284;2023-08-21T07:30:56;4.00;4.00;2.00
79038;PMS5003;68436;55.068;73.284;2023-08-21T07:33:22;8.75;7.00;5.00
79038;PMS5003;68436;55.068;73.284;2023-08-21T07:36:05;8.00;7.00;4.00
79038;PMS5003;68436;55.068;73.284;2023-08-21T07:38:31;8.00;7.00;4.00
79038;PMS5003;68436;55.068;73.284;2023-08-21T07:41:04;16.00;12.00;7.00
79038;PMS5003;68436;55.068;73.284;2023-08-21T07:43:31;6.00;5.00;3.00
79038;PMS5003;68436;55.068;73.284;2023-08-21T07:45:57;12.60;10.00;7.00
79038;PMS5003;68436;55.068;73.284;2023-08-21T07:48:23;4.50;4.00;2.75
79038;PMS5003;68436;55.068;73.284;2023-08-21T07:50:52;5.00;4.00;3.00
79038;PMS5003;68436;55.068;73.284;2023-08-21T07:53:19;4.00;4.00;3.00
79038;PMS5003;68436;55.068;73.284;2023-08-21T07:55:52;4.67;4.00;2.00
79038;PMS5003;68436;55.068;73.284;2023-08-21T07:58:19;15.00;11.00;5.00
79038;PMS5003;68436;55.068;73.284;2023-08-21T08:00:52;5.00;4.00;3.00
79038;PMS5003;68436;55.068;73.284;2023-08-21T08:03:18;33.00;27.75;17.75
79038;PMS5003;68436;55.068;73.284;2023-08-21T08:05:52;30.33;22.67;12.00
79038;PMS5003;68436;55.068;73.284;2023-08-21T08:08:18;14.25;11.50;7.25
79038;PMS5003;68436;55.068;73.284;2023-08-21T08:10:52;17.33;13.00;8.00
79038;PMS5003;68436;55.068;73.284;2023-08-21T08:13:18;25.50;15.75;7.75
79038;PMS5003;68436;55.068;73.284;2023-08-21T08:15:52;6.00;5.00;3.00
79038;PMS5003;68436;55.068;73.284;2023-08-21T08:18:18;34.25;26.50;15.25
79038;PMS5003;68436;55.068;73.284;2023-08-21T08:20:52;27.00;22.00;13.00
79038;PMS5003;68436;55.068;73.284;2023-08-21T08:23:19;8.75;7.00;4.00
79038;PMS5003;68436;55.068;73.284;2023-08-21T08:25:52;22.00;16.00;11.00
79038;PMS5003;68436;55.068;73.284;2023-08-21T08:28:18;19.25;15.50;10.00
79038;PMS5003;68436;55.068;73.284;2023-08-21T08:30:52;15.67;11.67;6.00
79038;PMS5003;68436;55.068;73.284;2023-08-21T08:33:18;19.00;14.00;8.00
79038;PMS5003;68436;55.068;73.284;2023-08-21T08:35:52;9.67;8.00;5.00
79038;PMS5003;68436;55.068;73.284;2023-08-21T08:38:18;35.00;24.00;12.00
79038;PMS5003;68436;55.068;73.284;2023-08-21T08:40:52;15.00;13.00;8.00
79038;PMS5003;68436;55.068;73.284;2023-08-21T08:43:20;5.00;5.00;3.50
79038;PMS5003;68436;55.068;73.284;2023-08-21T08:45:52;10.00;8.00;5.00
79038;PMS5003;68436;55.068;73.284;2023-08-21T08:48:20;5.00;4.25;3.50
79038;PMS5003;68436;55.068;73.284;2023-08-21T08:50:52;9.00;8.00;5.00
79038;PMS5003;68436;55.068;73.284;2023-08-21T08:53:18;14.50;12.00;7.00
79038;PMS5003;68436;55.068;73.284;2023-08-21T08:55:52;22.50;18.00;11.00
79038;PMS5003;68436;55.068;73.284;2023-08-21T08:58:18;26.50;21.00;13.00
79038;PMS5003;68436;55.068;73.284;2023-08-21T09:00:52;18.00;13.67;8.00
79038;PMS5003;68436;55.068;73.284;2023-08-21T09:03:18;9.00;8.00;5.00
79038;PMS5003;68436;55.068;73.284;2023-08-21T09:05:52;8.33;7.00;4.00
79038;PMS5003;68436;55.068;73.284;2023-08-21T09:08:18;6.00;5.00;3.00
79038;PMS5003;68436;55.068;73.284;2023-08-21T09:10:52;18.33;11.33;6.00
79038;PMS5003;68436;55.068;73.284;2023-08-21T09:13:19;4.00;3.75;2.00
79038;PMS5003;68436;55.068;73.284;2023-08-21T09:15:53;5.00;5.00;4.00
79038;PMS5003;68436;55.068;73.284;2023-08-21T09:18:19;23.50;19.75;12.00
79038;PMS5003;68436;55.068;73.284;2023-08-21T09:20:52;6.00;6.00;4.00
79038;PMS5003;68436;55.068;73.284;2023-08-21T09:23:18;6.00;4.75;3.00
79038;PMS5003;68436;55.068;73.284;2023-08-21T09:25:52;12.33;8.33;5.00
79038;PMS5003;68436;55.068;73.284;2023-08-21T09:28:19;4.00;4.00;2.00
79038;PMS5003;68436;55.068;73.284;2023-08-21T09:30:53;10.00;7.00;4.00
79038;PMS5003;68436;55.068;73.284;2023-08-21T09:33:21;6.00;5.00;4.00
79038;PMS5003;68436;55.068;73.284;2023-08-21T09:35:53;5.00;4.50;3.00
79038;PMS5003;68436;55.068;73.284;2023-08-21T09:38:19;7.50;6.25;4.00
79038;PMS5003;68436;55.068;73.284;2023-08-21T09:40:53;25.00;16.67;6.67
79038;PMS5003;68436;55.068;73.284;2023-08-21T09:43:23;5.00;5.00;3.50
79038;PMS5003;68436;55.068;73.284;2023-08-21T09:45:53;4.00;4.00;3.00
79038;PMS5003;68436;55.068;73.284;2023-08-21T09:48:25;5.00;5.00;3.00
79038;PMS5003;68436;55.068;73.284;2023-08-21T09:50:55;45.67;38.33;25.00
79038;PMS5003;68436;55.068;73.284;2023-08-21T09:53:25;21.75;19.25;11.50
79038;PMS5003;68436;55.068;73.284;2023-08-21T09:56:03;4.00;3.67;2.00
79038;PMS5003;68436;55.068;73.284;2023-08-21T09:58:29;13.50;12.00;8.00
79038;PMS5003;68436;55.068;73.284;2023-08-21T10:00:56;17.67;16.00;11.00
79038;PMS5003;68436;55.068;73.284;2023-08-21T10:03:23;14.00;11.00;7.00
79038;PMS5003;68436;55.068;73.284;2023-08-21T10:05:54;5.00;4.00;4.00
79038;PMS5003;68436;55.068;73.284;2023-08-21T10:08:24;9.50;6.00;3.00
79038;PMS5003;68436;55.068;73.284;2023-08-21T10:10:52;10.00;9.00;5.00
79038;PMS5003;68436;55.068;73.284;2023-08-21T10:13:19;10.00;7.00;4.00
79038;PMS5003;68436;55.068;73.284;2023-08-21T10:15:52;9.00;7.00;4.00
79038;PMS5003;68436;55.068;73.284;2023-08-21T10:18:19;4.00;4.00;3.00
79038;PMS5003;68436;55.068;73.284;2023-08-21T10:20:52;6.00;5.00;3.00
79038;PMS5003;68436;55.068;73.284;2023-08-21T10:23:26;9.00;7.00;4.00
79038;PMS5003;68436;55.068;73.284;2023-08-21T10:25:59;4.00;3.00;2.50
79038;PMS5003;68436;55.068;73.284;2023-08-21T10:28:40;6.00;4.75;3.00
79038;PMS5003;68436;55.068;73.284;2023-08-21T10:33:52;14.00;11.75;8.00
79038;PMS5003;68436;55.068;73.284;2023-08-21T10:39:03;13.00;11.00;8.00
79038;PMS5003;68436;55.068;73.284;2023-08-21T10:41:30;26.00;22.33;16.00
79038;PMS5003;68436;55.068;73.284;2023-08-21T10:43:56;41.00;34.00;22.00
79038;PMS5003;68436;55.068;73.284;2023-08-21T10:46:22;20.00;18.00;12.00
79038;PMS5003;68436;55.068;73.284;2023-08-21T10:48:48;33.00;21.50;11.00
79038;PMS5003;68436;55.068;73.284;2023-08-21T10:51:14;7.00;6.00;5.00
79038;PMS5003;68436;55.068;73.284;2023-08-21T10:53:42;4.00;3.25;3.00
79038;PMS5003;68436;55.068;73.284;2023-08-21T10:56:08;7.00;5.25;4.00
79038;PMS5003;68436;55.068;73.284;2023-08-21T10:58:44;10.00;8.25;4.00
79038;PMS5003;68436;55.068;73.284;2023-08-21T11:01:12;14.00;11.33;7.00
79038;PMS5003;68436;55.068;73.284;2023-08-21T11:03:39;11.00;9.00;5.00
79038;PMS5003;68436;55.068;73.284;2023-08-21T11:06:08;9.00;7.00;5.00
79038;PMS5003;68436;55.068;73.284;2023-08-21T11:08:34;6.25;5.75;4.00
79038;PMS5003;68436;55.068;73.284;2023-08-21T11:11:04;6.00;5.00;3.00
79038;PMS5003;68436;55.068;73.284;2023-08-21T11:13:30;9.00;7.50;4.00
79038;PMS5003;68436;55.068;73.284;2023-08-21T11:18:35;4.00;3.00;3.00
79038;PMS5003;68436;55.068;73.284;2023-08-21T11:21:05;5.00;4.67;3.00
79038;PMS5003;68436;55.068;73.284;2023-08-21T11:23:33;24.25;16.00;8.00
79038;PMS5003;68436;55.068;73.284;2023-08-21T11:26:00;4.00;3.00;2.00
79038;PMS5003;68436;55.068;73.284;2023-08-21T11:28:27;5.00;4.00;3.00
79038;PMS5003;68436;55.068;73.284;2023-08-21T11:30:55;9.00;7.00;3.00
79038;PMS5003;68436;55.068;73.284;2023-08-21T11:33:23;5.00;5.00;3.00
79038;PMS5003;68436;55.068;73.284;2023-08-21T11:35:52;7.00;6.00;4.00
79038;PMS5003;68436;55.068;73.284;2023-08-21T11:38:23;6.00;5.00;3.50
79038;PMS5003;68436;55.068;73.284;2023-08-21T11:43:22;11.00;10.00;5.00
79038;PMS5003;68436;55.068;73.284;2023-08-21T11:45:53;5.00;5.00;3.00
79038;PMS5003;68436;55.068;73.284;2023-08-21T11:48:20;6.00;5.00;3.25
79038;PMS5003;68436;55.068;73.284;2023-08-21T11:50:52;5.00;4.00;3.00
79038;PMS5003;68436;55.068;73.284;2023-08-21T11:53:32;5.00;4.00;3.00
79038;PMS5003;68436;55.068;73.284;2023-08-21T11:55:59;5.00;4.00;3.00
79038;PMS5003;68436;55.068;73.284;2023-08-21T11:58:26;4.00;4.00;2.50
79038;PMS5003;68436;55.068;73.284;2023-08-21T12:00:52;5.00;4.00;3.00
79038;PMS5003;68436;55.068;73.284;2023-08-21T12:03:18;4.00;4.00;2.00
79038;PMS5003;68436;55.068;73.284;2023-08-21T12:05:52;5.00;4.00;3.00
79038;PMS5003;68436;55.068;73.284;2023-08-21T12:08:21;8.00;7.25;6.00
79038;PMS5003;68436;55.068;73.284;2023-08-21T12:10:52;5.00;4.00;3.00
79038;PMS5003;68436;55.068;73.284;2023-08-21T12:13:19;4.00;4.00;3.00
79038;PMS5003;68436;55.068;73.284;2023-08-21T12:15:52;6.00;5.00;3.00
79038;PMS5003;68436;55.068;73.284;2023-08-21T12:18:18;5.00;4.00;3.00
79038;PMS5003;68436;55.068;73.284;2023-08-21T12:20:52;4.00;3.33;2.00
79038;PMS5003;68436;55.068;73.284;2023-08-21T12:23:18;5.00;5.00;3.00
79038;PMS5003;68436;55.068;73.284;2023-08-21T12:25:52;4.33;4.00;3.00
79038;PMS5003;68436;55.068;73.284;2023-08-21T12:28:19;7.00;7.00;4.00
79038;PMS5003;68436;55.068;73.284;2023-08-21T12:30:52;16.00;14.00;10.00
79038;PMS5003;68436;55.068;73.284;2023-08-21T12:33:19;9.00;8.00;4.00
79038;PMS5003;68436;55.068;73.284;2023-08-21T12:35:52;8.00;7.00;5.00
79038;PMS5003;68436;55.068;73.284;2023-08-21T12:38:18;4.00;4.00;3.00
79038;PMS5003;68436;55.068;73.284;2023-08-21T12:40:52;4.00;4.00;2.00
79038;PMS5003;68436;55.068;73.284;2023-08-21T12:43:18;4.75;4.00;2.00
79038;PMS5003;68436;55.068;73.284;2023-08-21T12:45:52;6.00;5.00;4.00
79038;PMS5003;68436;55.068;73.284;2023-08-21T12:48:19;8.00;7.00;5.00
79038;PMS5003;68436;55.068;73.284;2023-08-21T12:50:52;18.67;17.00;11.67
79038;PMS5003;68436;55.068;73.284;2023-08-21T12:53:18;23.00;20.00;13.00
79038;PMS5003;68436;55.068;73.284;2023-08-21T12:55:52;8.67;7.67;4.00
79038;PMS5003;68436;55.068;73.284;2023-08-21T12:58:18;6.00;5.00;3.00
79038;PMS5003;68436;55.068;73.284;2023-08-21T13:00:52;10.00;9.00;6.00
79038;PMS5003;68436;55.068;73.284;2023-08-21T13:03:19;7.00;6.00;4.00
79038;PMS5003;68436;55.068;73.284;2023-08-21T13:05:52;7.00;5.00;3.00
79038;PMS5003;68436;55.068;73.284;2023-08-21T13:08:18;6.00;5.00;3.00
79038;PMS5003;68436;55.068;73.284;2023-08-21T13:10:52;6.00;4.67;3.00
79038;PMS5003;68436;55.068;73.284;2023-08-21T13:13:18;5.00;4.00;3.00
79038;PMS5003;68436;55.068;73.284;2023-08-21T13:15:52;8.00;7.00;3.00
79038;PMS5003;68436;55.068;73.284;2023-08-21T13:18:20;5.00;5.00;3.25
79038;PMS5003;68436;55.068;73.284;2023-08-21T13:20:52;6.00;5.00;3.00
79038;PMS5003;68436;55.068;73.284;2023-08-21T13:23:18;5.00;5.00;3.00
79038;PMS5003;68436;55.068;73.284;2023-08-21T13:25:52;6.33;5.00;3.67
79038;PMS5003;68436;55.068;73.284;2023-08-21T13:28:18;6.00;5.00;3.00
79038;PMS5003;68436;55.068;73.284;2023-08-21T13:30:52;6.00;5.00;3.00
79038;PMS5003;68436;55.068;73.284;2023-08-21T13:33:18;9.00;7.00;5.00
79038;PMS5003;68436;55.068;73.284;2023-08-21T13:35:52;10.67;8.00;4.00
79038;PMS5003;68436;55.068;73.284;2023-08-21T13:38:18;9.00;8.00;5.00
79038;PMS5003;68436;55.068;73.284;2023-08-21T13:40:52;7.00;6.00;4.00
79038;PMS5003;68436;55.068;73.284;2023-08-21T13:43:18;8.00;7.00;5.00
79038;PMS5003;68436;55.068;73.284;2023-08-21T13:45:52;9.00;7.00;5.00
79038;PMS5003;68436;55.068;73.284;2023-08-21T13:48:19;10.00;9.00;5.25
79038;PMS5003;68436;55.068;73.284;2023-08-21T13:50:52;11.00;9.00;6.00
79038;PMS5003;68436;55.068;73.284;2023-08-21T13:53:18;10.00;9.00;6.00
79038;PMS5003;68436;55.068;73.284;2023-08-21T13:55:52;9.00;8.00;5.00
79038;PMS5003;68436;55.068;73.284;2023-08-21T13:58:18;12.00;10.00;6.00
79038;PMS5003;68436;55.068;73.284;2023-08-21T14:00:52;9.00;8.00;5.67
79038;PMS5003;68436;55.068;73.284;2023-08-21T14:03:18;9.00;8.00;6.00
79038;PMS5003;68436;55.068;73.284;2023-08-21T14:05:52;9.00;8.00;5.00
79038;PMS5003;68436;55.068;73.284;2023-08-21T14:08:18;8.25;7.00;5.00
79038;PMS5003;68436;55.068;73.284;2023-08-21T14:10:52;7.67;7.00;5.00
79038;PMS5003;68436;55.068;73.284;2023-08-21T14:13:18;7.00;7.00;4.00
79038;PMS5003;68436;55.068;73.284;2023-08-21T14:15:52;9.00;8.00;5.00
79038;PMS5003;68436;55.068;73.284;2023-08-21T14:18:18;8.25;7.00;4.50
79038;PMS5003;68436;55.068;73.284;2023-08-21T14:20:52;10.00;8.00;5.00
79038;PMS5003;68436;55.068;73.284;2023-08-21T14:23:18;10.00;9.00;6.00
79038;PMS5003;68436;55.068;73.284;2023-08-21T14:25:52;11.00;10.00;6.00